createdAt,value
2018-12-20T00:00:09.387Z,58.84
2018-12-20T00:02:35.770Z,56.94
2018-12-20T00:05:01.768Z,56.83
2018-12-20T00:07:27.888Z,57.40
2018-12-20T00:09:53.975Z,56.91
2018-12-20T00:12:19.920Z,57.44
2018-12-20T00:14:45.865Z,58.27
2018-12-20T00:17:12.041Z,57.87
2018-12-20T00:19:38.193Z,56.68
2018-12-20T00:22:04.183Z,56.99
2018-12-20T00:24:30.117Z,55.82
2018-12-20T00:26:56.285Z,55.62
2018-12-20T00:29:22.231Z,57.61
2018-12-20T00:31:48.259Z,55.53
2018-12-20T00:34:14.387Z,57.34
2018-12-20T00:36:40.519Z,56.79
2018-12-20T00:39:06.529Z,57.29
2018-12-20T00:41:32.467Z,57.87
2018-12-20T00:43:58.412Z,57.03
2018-12-20T00:46:24.420Z,57.04
2018-12-20T00:48:50.472Z,56.49
2018-12-20T00:51:16.522Z,56.31
2018-12-20T00:53:42.484Z,54.12
2018-12-20T00:56:08.526Z,54.27
2018-12-20T00:58:34.523Z,53.89
2018-12-20T01:01:00.524Z,55.08
2018-12-20T01:03:26.534Z,54.68
2018-12-20T01:05:52.693Z,54.16
2018-12-20T01:08:18.787Z,54.71
2018-12-20T01:10:44.845Z,54.16
2018-12-20T01:13:10.884Z,55.03
2018-12-20T01:15:36.859Z,53.21
2018-12-20T01:18:02.918Z,55.79
2018-12-20T01:20:29.034Z,56.14
2018-12-20T01:22:55.126Z,57.05
2018-12-20T01:25:21.145Z,57.52
2018-12-20T01:27:47.274Z,56.15
2018-12-20T01:30:13.318Z,55.98
2018-12-20T01:32:39.320Z,54.56
2018-12-20T01:35:05.392Z,54.47
2018-12-20T01:37:33.524Z,52.91
2018-12-20T01:39:59.492Z,53.88
2018-12-20T01:42:25.507Z,56.90
2018-12-20T01:44:53.606Z,57.72
2018-12-20T01:47:19.583Z,57.27
2018-12-20T01:49:45.673Z,58.19
2018-12-20T01:52:11.750Z,54.76
2018-12-20T01:54:37.914Z,56.11
2018-12-20T01:57:03.978Z,55.97
2018-12-20T01:59:30.091Z,57.35
2018-12-20T02:01:56.300Z,57.11
2018-12-20T02:04:22.381Z,57.23
2018-12-20T02:06:48.414Z,59.38
2018-12-20T02:09:14.414Z,59.04
2018-12-20T02:11:40.501Z,59.30
2018-12-20T02:14:06.723Z,59.36
2018-12-20T02:16:33.102Z,57.80
2018-12-20T02:18:59.251Z,60.05
2018-12-20T02:21:25.296Z,59.36
2018-12-20T02:23:51.420Z,59.20
2018-12-20T02:26:17.451Z,59.15
2018-12-20T02:28:43.542Z,57.80
2018-12-20T02:31:09.579Z,56.72
2018-12-20T02:33:35.559Z,55.35
2018-12-20T02:36:01.676Z,55.52
2018-12-20T02:38:27.848Z,54.38
2018-12-20T02:40:53.875Z,55.80
2018-12-20T02:43:19.966Z,53.17
2018-12-20T02:45:46.069Z,54.60
2018-12-20T02:48:12.119Z,55.44
2018-12-20T02:50:38.165Z,53.24
2018-12-20T02:53:04.117Z,52.62
2018-12-20T02:55:30.064Z,52.71
2018-12-20T02:57:56.065Z,54.67
2018-12-20T03:00:22.275Z,54.09
2018-12-20T03:02:48.725Z,54.57
2018-12-20T03:05:14.857Z,54.57
2018-12-20T03:07:40.937Z,53.48
2018-12-20T03:10:07.208Z,53.24
2018-12-20T03:12:33.295Z,53.66
2018-12-20T03:14:59.558Z,54.62
2018-12-20T03:17:25.545Z,54.39
2018-12-20T03:19:51.691Z,54.23
2018-12-20T03:22:17.870Z,52.50
2018-12-20T03:24:44.207Z,50.87
2018-12-20T03:27:10.436Z,52.54
2018-12-20T03:29:36.447Z,52.76
2018-12-20T03:32:02.684Z,53.88
2018-12-20T03:34:28.824Z,55.81
2018-12-20T03:36:55.133Z,54.11
2018-12-20T03:39:21.331Z,52.74
2018-12-20T03:41:47.392Z,54.86
2018-12-20T03:44:13.451Z,54.18
2018-12-20T03:46:39.408Z,54.72
2018-12-20T03:49:05.487Z,53.29
2018-12-20T03:51:31.735Z,52.20
2018-12-20T03:53:57.961Z,53.70
2018-12-20T03:56:24.045Z,53.94
2018-12-20T03:58:50.203Z,53.79
2018-12-20T04:01:16.272Z,53.53
2018-12-20T04:03:42.295Z,54.07
2018-12-20T04:06:08.343Z,54.11
2018-12-20T04:08:34.363Z,55.40
2018-12-20T04:11:00.472Z,54.51
2018-12-20T04:13:26.747Z,54.80
2018-12-20T04:15:52.989Z,55.87
2018-12-20T04:18:19.085Z,55.97
2018-12-20T04:20:45.175Z,56.25
2018-12-20T04:23:11.111Z,56.59
2018-12-20T04:25:37.146Z,57.63
2018-12-20T04:28:03.362Z,55.66
2018-12-20T04:30:29.419Z,56.63
2018-12-20T04:32:55.378Z,54.62
2018-12-20T04:35:21.372Z,54.25
2018-12-20T04:37:47.335Z,53.43
2018-12-20T04:40:13.313Z,54.41
2018-12-20T04:42:39.722Z,54.59
2018-12-20T04:45:05.861Z,55.33
2018-12-20T04:47:31.926Z,56.12
2018-12-20T04:49:58.062Z,56.31
2018-12-20T04:52:24.225Z,55.16
2018-12-20T04:54:50.280Z,56.08
2018-12-20T04:57:16.342Z,56.59
2018-12-20T04:59:42.893Z,57.60
2018-12-20T05:02:09.069Z,57.42
2018-12-20T05:04:35.174Z,56.45
2018-12-20T05:07:01.254Z,54.03
2018-12-20T05:09:27.288Z,55.97
2018-12-20T05:11:53.272Z,54.71
2018-12-20T05:14:19.295Z,52.71
2018-12-20T05:16:45.661Z,54.76
2018-12-20T05:19:11.799Z,56.13
2018-12-20T05:21:37.809Z,53.21
2018-12-20T05:24:03.772Z,52.57
2018-12-20T05:26:29.808Z,52.44
2018-12-20T05:28:55.974Z,51.90
2018-12-20T05:31:22.106Z,52.40
2018-12-20T05:33:48.108Z,51.43
2018-12-20T05:36:14.153Z,52.01
2018-12-20T05:38:40.214Z,52.25
2018-12-20T05:41:06.276Z,51.67
2018-12-20T05:43:32.311Z,51.85
2018-12-20T05:46:04.523Z,53.61
2018-12-20T05:48:26.293Z,51.36
2018-12-20T05:50:52.328Z,51.66
2018-12-20T05:53:18.444Z,51.83
2018-12-20T05:55:44.481Z,55.12
2018-12-20T05:58:10.628Z,52.93
2018-12-20T06:00:37.022Z,55.27
2018-12-20T06:03:03.103Z,54.00
2018-12-20T06:05:29.177Z,54.93
2018-12-20T06:10:28.194Z,56.24
2018-12-20T06:12:54.397Z,58.28
2018-12-20T06:15:20.591Z,56.69
2018-12-20T06:17:46.548Z,57.06
2018-12-20T06:20:12.514Z,56.20
2018-12-20T06:22:38.532Z,56.18
2018-12-20T06:25:04.484Z,55.66
2018-12-20T06:27:30.417Z,52.61
2018-12-20T06:29:56.428Z,54.29
2018-12-20T06:32:22.382Z,54.99
2018-12-20T06:34:48.343Z,57.42
2018-12-20T06:37:14.365Z,56.40
2018-12-20T06:39:40.394Z,56.58
2018-12-20T06:42:06.370Z,57.15
2018-12-20T06:44:32.332Z,55.97
2018-12-20T06:46:58.350Z,54.66
2018-12-20T06:49:24.285Z,53.86
2018-12-20T06:51:50.903Z,55.14
2018-12-20T06:54:16.867Z,56.69
2018-12-20T06:56:42.837Z,57.62
2018-12-20T06:59:08.804Z,57.46
2018-12-20T07:01:34.765Z,58.28
2018-12-20T07:04:00.749Z,56.72
2018-12-20T07:06:26.732Z,56.87
2018-12-20T07:08:52.673Z,55.93
2018-12-20T07:11:18.643Z,54.93
2018-12-20T07:13:44.590Z,55.17
2018-12-20T07:16:10.571Z,55.54
2018-12-20T07:18:36.516Z,56.23
2018-12-20T07:21:02.450Z,58.16
2018-12-20T07:23:28.398Z,58.54
2018-12-20T07:25:54.361Z,55.23
2018-12-20T07:28:20.324Z,57.06
2018-12-20T07:30:46.280Z,56.22
2018-12-20T07:33:12.487Z,56.79
2018-12-20T07:35:38.438Z,55.96
2018-12-20T07:38:04.404Z,58.41
2018-12-20T07:40:30.340Z,58.11
2018-12-20T07:42:56.265Z,56.62
2018-12-20T07:45:22.217Z,57.00
2018-12-20T07:47:48.186Z,58.30
2018-12-20T07:50:14.135Z,56.67
2018-12-20T07:52:40.061Z,56.80
2018-12-20T07:55:05.997Z,57.51
2018-12-20T07:57:31.933Z,57.13
2018-12-20T07:59:57.895Z,58.50
2018-12-20T08:02:23.879Z,57.80
2018-12-20T08:04:49.844Z,58.11
2018-12-20T08:07:15.825Z,58.60
2018-12-20T08:09:41.775Z,58.70
2018-12-20T08:12:07.749Z,57.07
2018-12-20T08:14:33.709Z,58.83
2018-12-20T08:16:59.711Z,58.39
2018-12-20T08:19:25.669Z,56.69
2018-12-20T08:24:24.042Z,58.87
2018-12-20T08:26:50.061Z,57.51
2018-12-20T08:29:15.996Z,58.13
2018-12-20T08:31:41.940Z,59.43
2018-12-20T08:34:07.894Z,59.36
2018-12-20T08:36:33.837Z,59.83
2018-12-20T08:38:59.798Z,59.80
2018-12-20T08:41:25.731Z,60.64
2018-12-20T08:43:51.674Z,58.71
2018-12-20T08:46:17.632Z,61.13
2018-12-20T08:48:43.568Z,60.99
2018-12-20T08:51:09.535Z,59.69
2018-12-20T08:53:35.494Z,56.27
2018-12-20T08:56:01.455Z,56.01
2018-12-20T08:58:27.408Z,56.90
2018-12-20T09:00:53.355Z,56.79
2018-12-20T09:03:19.316Z,56.52
2018-12-20T09:05:45.272Z,58.88
2018-12-20T09:08:11.251Z,58.29
2018-12-20T09:10:37.183Z,58.00
2018-12-20T09:13:09.579Z,59.24
2018-12-20T09:15:31.094Z,57.44
2018-12-20T09:17:57.039Z,57.72
2018-12-20T09:20:22.995Z,56.37
2018-12-20T09:22:48.963Z,56.69
2018-12-20T09:25:14.919Z,55.23
2018-12-20T09:27:40.855Z,58.17
2018-12-20T09:30:06.796Z,55.93
2018-12-20T09:32:32.749Z,58.01
2018-12-20T09:34:58.690Z,57.13
2018-12-20T09:37:24.620Z,56.26
2018-12-20T09:39:50.596Z,57.63
2018-12-20T09:42:16.532Z,57.50
2018-12-20T09:44:42.458Z,59.03
2018-12-20T09:47:11.967Z,60.05
2018-12-20T09:49:36.404Z,58.49
2018-12-20T09:52:02.370Z,57.95
2018-12-20T09:54:28.313Z,58.20
2018-12-20T09:56:54.275Z,59.69
2018-12-20T09:59:20.425Z,58.67
2018-12-20T10:01:46.390Z,60.86
2018-12-20T10:04:12.332Z,59.88
2018-12-20T10:06:38.280Z,56.72
2018-12-20T10:09:04.216Z,57.08
2018-12-20T10:11:30.182Z,58.96
2018-12-20T10:13:56.176Z,56.82
2018-12-20T10:16:22.230Z,59.46
2018-12-20T10:18:48.315Z,59.68
2018-12-20T10:21:14.275Z,60.62
2018-12-20T10:23:40.232Z,60.70
2018-12-20T10:26:06.189Z,59.85
2018-12-20T10:28:32.151Z,59.78
2018-12-20T10:30:58.122Z,59.85
2018-12-20T10:33:24.085Z,61.24
2018-12-20T10:35:50.025Z,59.81
2018-12-20T10:38:16.012Z,59.82
2018-12-20T10:40:41.980Z,58.53
2018-12-20T10:43:07.916Z,60.84
2018-12-20T10:45:33.882Z,58.59
2018-12-20T10:47:59.821Z,59.39
2018-12-20T10:50:25.757Z,58.89
2018-12-20T10:52:51.692Z,58.22
2018-12-20T10:55:17.632Z,58.34
2018-12-20T10:57:43.594Z,59.58
2018-12-20T11:00:09.551Z,60.98
2018-12-20T11:02:35.500Z,61.33
2018-12-20T11:05:01.464Z,59.92
2018-12-20T11:07:27.437Z,60.43
2018-12-20T11:09:53.381Z,61.24
2018-12-20T11:12:19.362Z,59.76
2018-12-20T11:14:45.395Z,60.06
2018-12-20T11:17:11.362Z,59.54
2018-12-20T11:19:37.292Z,61.60
2018-12-20T11:22:03.255Z,61.80
2018-12-20T11:24:29.211Z,60.76
2018-12-20T11:26:55.147Z,58.09
2018-12-20T11:29:21.116Z,61.61
2018-12-20T11:31:47.098Z,64.57
2018-12-20T11:34:13.086Z,60.79
2018-12-20T11:36:39.141Z,60.78
2018-12-20T11:39:08.542Z,62.02
2018-12-20T11:41:33.066Z,61.85
2018-12-20T11:43:59.028Z,60.75
2018-12-20T11:46:24.999Z,58.39
2018-12-20T11:48:50.933Z,59.51
2018-12-20T11:51:16.883Z,59.68
2018-12-20T11:53:42.837Z,61.85
2018-12-20T11:56:08.803Z,60.11
2018-12-20T11:58:34.948Z,60.44
2018-12-20T12:01:00.919Z,60.39
2018-12-20T12:03:26.879Z,61.49
2018-12-20T12:05:52.824Z,63.49
2018-12-20T12:08:18.790Z,61.38
2018-12-20T12:10:44.733Z,61.89
2018-12-20T12:13:10.687Z,57.68
2018-12-20T12:15:36.652Z,59.30
2018-12-20T12:18:02.586Z,57.13
2018-12-20T12:20:28.560Z,56.74
2018-12-20T12:22:54.512Z,56.97
2018-12-20T12:25:20.508Z,55.04
2018-12-20T12:27:46.451Z,58.75
2018-12-20T12:30:12.456Z,58.94
2018-12-20T12:32:38.415Z,57.89
2018-12-20T12:35:04.387Z,56.36
2018-12-20T12:37:30.340Z,55.72
2018-12-20T12:39:56.289Z,58.00
2018-12-20T12:42:22.225Z,59.06
2018-12-20T12:44:48.164Z,58.78
2018-12-20T12:47:14.129Z,56.72
2018-12-20T12:49:40.063Z,58.25
2018-12-20T12:52:06.008Z,57.14
2018-12-20T12:54:31.961Z,56.38
2018-12-20T12:56:57.942Z,56.09
2018-12-20T12:59:23.960Z,54.23
2018-12-20T13:01:49.917Z,54.97
2018-12-20T13:04:15.878Z,56.58
2018-12-20T13:06:41.817Z,59.58
2018-12-20T13:09:07.782Z,59.83
2018-12-20T13:11:33.778Z,59.03
2018-12-20T13:13:59.714Z,55.29
2018-12-20T13:16:25.676Z,54.05
2018-12-20T13:18:51.628Z,54.08
2018-12-20T13:21:17.577Z,54.36
2018-12-20T13:23:43.533Z,53.92
2018-12-20T13:26:09.580Z,54.33
2018-12-20T13:28:35.716Z,55.66
2018-12-20T13:31:01.871Z,55.22
2018-12-20T13:33:28.258Z,53.88
2018-12-20T13:35:55.078Z,53.55
2018-12-20T13:38:21.017Z,53.94
2018-12-20T13:40:47.653Z,54.41
2018-12-20T13:43:13.596Z,54.78
2018-12-20T13:45:39.609Z,55.32
2018-12-20T13:48:05.556Z,55.18
2018-12-20T13:50:31.508Z,54.80
2018-12-20T13:52:57.449Z,54.02
2018-12-20T13:55:23.406Z,53.97
2018-12-20T13:57:49.367Z,53.73
2018-12-20T14:00:15.318Z,54.36
2018-12-20T14:02:41.285Z,54.90
2018-12-20T14:05:07.241Z,53.84
2018-12-20T14:07:33.195Z,53.50
2018-12-20T14:09:59.158Z,54.49
2018-12-20T14:12:25.115Z,57.03
2018-12-20T14:14:51.083Z,54.02
2018-12-20T14:17:17.024Z,55.96
2018-12-20T14:19:42.957Z,54.84
2018-12-20T14:22:09.052Z,55.14
2018-12-20T14:24:35.932Z,57.32
2018-12-20T14:27:01.893Z,57.50
2018-12-20T14:29:27.860Z,58.60
2018-12-20T14:31:54.383Z,60.05
2018-12-20T14:34:20.362Z,59.38
2018-12-20T14:36:46.363Z,57.45
2018-12-20T14:39:12.407Z,56.78
2018-12-20T14:41:38.374Z,58.44
2018-12-20T14:44:04.328Z,57.62
2018-12-20T14:46:30.282Z,57.38
2018-12-20T14:48:56.226Z,57.27
2018-12-20T14:51:22.204Z,58.03
2018-12-20T14:53:48.136Z,58.89
2018-12-20T14:56:14.100Z,58.23
2018-12-20T14:58:40.066Z,57.07
2018-12-20T15:01:11.659Z,56.40
2018-12-20T15:03:37.592Z,56.29
2018-12-20T15:06:03.587Z,55.43
2018-12-20T15:08:30.578Z,55.54
2018-12-20T15:10:56.580Z,56.05
2018-12-20T15:13:22.548Z,54.98
2018-12-20T15:15:48.485Z,54.29
2018-12-20T15:18:14.459Z,56.84
2018-12-20T15:20:40.991Z,55.06
2018-12-20T15:23:07.420Z,57.16
2018-12-20T15:25:33.365Z,54.77
2018-12-20T15:27:59.349Z,54.53
2018-12-20T15:30:25.981Z,54.78
2018-12-20T15:32:52.031Z,54.42
2018-12-20T15:35:18.009Z,54.12
2018-12-20T15:37:43.960Z,53.31
2018-12-20T15:40:10.008Z,53.15
2018-12-20T15:42:36.028Z,53.46
2018-12-20T15:45:01.970Z,52.51
2018-12-20T15:47:27.953Z,53.46
2018-12-20T15:49:53.919Z,53.04
2018-12-20T15:52:19.919Z,52.75
2018-12-20T15:54:45.869Z,52.87
2018-12-20T15:57:12.572Z,53.38
2018-12-20T15:59:38.524Z,52.16
2018-12-20T16:02:04.504Z,53.06
2018-12-20T16:04:30.447Z,53.25
2018-12-20T16:06:56.518Z,52.88
2018-12-20T16:09:22.480Z,52.83
2018-12-20T16:11:50.148Z,52.53
2018-12-20T16:14:17.841Z,52.58
2018-12-20T16:16:43.772Z,53.26
2018-12-20T16:19:09.744Z,54.09
2018-12-20T16:21:35.736Z,53.81
2018-12-20T16:24:02.729Z,53.51
2018-12-20T16:26:28.708Z,53.71
2018-12-20T16:28:54.666Z,53.61
2018-12-20T16:31:20.638Z,53.21
2018-12-20T16:33:46.627Z,53.13
2018-12-20T16:36:12.596Z,53.78
2018-12-20T16:38:38.600Z,53.24
2018-12-20T16:41:04.569Z,53.54
2018-12-20T16:43:30.698Z,53.27
2018-12-20T16:45:56.686Z,54.03
2018-12-20T16:48:22.666Z,54.60
2018-12-20T16:50:48.648Z,54.37
2018-12-20T16:53:14.643Z,54.26
2018-12-20T16:55:40.728Z,54.39
2018-12-20T16:58:06.734Z,54.70
2018-12-20T17:00:32.730Z,54.39
2018-12-20T17:02:58.721Z,54.30
2018-12-20T17:05:24.872Z,54.51
2018-12-20T17:07:50.834Z,54.65
2018-12-20T17:10:16.802Z,54.38
2018-12-20T17:12:42.740Z,54.05
2018-12-20T17:15:08.813Z,53.89
2018-12-20T17:17:34.772Z,54.28
2018-12-20T17:20:00.727Z,53.99
2018-12-20T17:22:26.726Z,53.12
2018-12-20T17:24:52.709Z,52.66
2018-12-20T17:27:18.701Z,53.02
2018-12-20T17:29:44.651Z,53.36
2018-12-20T17:32:10.684Z,53.00
2018-12-20T17:34:36.931Z,53.66
2018-12-20T17:37:02.913Z,53.40
2018-12-20T17:39:28.864Z,52.78
2018-12-20T17:41:55.694Z,52.97
2018-12-20T17:44:21.704Z,53.17
2018-12-20T17:46:47.679Z,53.31
2018-12-20T17:49:13.951Z,53.25
2018-12-20T17:51:40.823Z,53.06
2018-12-20T17:54:06.794Z,52.35
2018-12-20T17:56:33.840Z,53.45
2018-12-20T17:59:00.911Z,53.32
2018-12-20T18:04:02.636Z,53.08
2018-12-20T18:06:28.628Z,52.55
2018-12-20T18:08:54.616Z,52.40
2018-12-20T18:11:20.592Z,52.32
2018-12-20T18:13:52.485Z,51.99
2018-12-20T18:16:18.480Z,52.37
2018-12-20T18:18:44.458Z,52.28
2018-12-20T18:21:10.414Z,52.02
2018-12-20T18:23:36.373Z,52.11
2018-12-20T18:26:02.370Z,52.55
2018-12-20T18:28:28.318Z,52.11
2018-12-20T18:30:54.301Z,52.16
2018-12-20T18:33:20.347Z,52.18
2018-12-20T18:35:46.358Z,52.04
2018-12-20T18:38:13.352Z,52.39
2018-12-20T18:40:39.311Z,51.50
2018-12-20T18:43:05.310Z,51.63
2018-12-20T18:45:31.842Z,51.38
2018-12-20T18:47:59.084Z,51.58
2018-12-20T18:50:25.661Z,51.43
2018-12-20T18:52:51.617Z,51.88
2018-12-20T18:55:17.659Z,52.22
2018-12-20T18:57:43.655Z,52.09
2018-12-20T19:00:09.619Z,51.41
2018-12-20T19:02:35.600Z,51.64
2018-12-20T19:05:02.134Z,51.75
2018-12-20T19:07:28.104Z,52.02
2018-12-20T19:09:54.066Z,52.12
2018-12-20T19:12:20.021Z,52.41
2018-12-20T19:14:46.028Z,52.62
2018-12-20T19:17:11.997Z,52.42
2018-12-20T19:19:37.977Z,52.23
2018-12-20T19:22:03.944Z,52.36
2018-12-20T19:24:31.665Z,52.75
2018-12-20T19:26:57.737Z,52.55
2018-12-20T19:29:23.800Z,52.76
2018-12-20T19:31:49.742Z,52.22
2018-12-20T19:34:15.686Z,52.11
2018-12-20T19:36:41.652Z,52.23
2018-12-20T19:39:07.625Z,52.57
2018-12-20T19:41:33.658Z,52.06
2018-12-20T19:43:59.642Z,52.19
2018-12-20T19:46:25.633Z,52.00
2018-12-20T19:48:51.587Z,52.06
2018-12-20T19:51:17.601Z,52.06
2018-12-20T19:53:43.624Z,52.24
2018-12-20T19:56:09.612Z,51.99
2018-12-20T19:58:35.589Z,51.59
2018-12-20T20:01:01.553Z,51.68
2018-12-20T20:03:27.499Z,50.67
2018-12-20T20:05:53.575Z,50.28
2018-12-20T20:08:19.639Z,51.10
2018-12-20T20:10:45.644Z,50.53
2018-12-20T20:13:19.021Z,51.08
2018-12-20T20:15:39.650Z,50.79
2018-12-20T20:18:08.817Z,50.71
2018-12-20T20:20:34.791Z,51.50
2018-12-20T20:23:00.751Z,51.02
2018-12-20T20:25:26.757Z,51.54
2018-12-20T20:27:52.765Z,50.89
2018-12-20T20:30:18.912Z,50.53
2018-12-20T20:32:44.889Z,50.31
2018-12-20T20:35:10.859Z,50.32
2018-12-20T20:37:36.867Z,50.43
2018-12-20T20:40:02.906Z,49.99
2018-12-20T20:42:29.111Z,49.72
2018-12-20T20:44:55.170Z,49.85
2018-12-20T20:47:21.163Z,50.12
2018-12-20T20:49:48.128Z,49.95
2018-12-20T20:52:14.720Z,49.69
2018-12-20T20:54:40.748Z,49.12
2018-12-20T20:57:06.789Z,49.89
2018-12-20T20:59:32.735Z,49.23
2018-12-20T21:01:58.774Z,49.41
2018-12-20T21:04:24.899Z,50.04
2018-12-20T21:06:50.857Z,50.53
2018-12-20T21:09:16.922Z,49.90
2018-12-20T21:11:42.957Z,49.78
2018-12-20T21:14:08.925Z,50.26
2018-12-20T21:16:35.026Z,50.25
2018-12-20T21:19:01.004Z,50.09
2018-12-20T21:21:27.086Z,50.19
2018-12-20T21:23:53.052Z,50.87
2018-12-20T21:26:19.008Z,51.41
2018-12-20T21:28:44.972Z,50.04
2018-12-20T21:33:43.142Z,49.75
2018-12-20T21:36:09.119Z,49.54
2018-12-20T21:38:35.096Z,49.52
2018-12-20T21:41:01.051Z,49.12
2018-12-20T21:43:27.019Z,49.71
2018-12-20T21:45:53.012Z,49.85
2018-12-20T21:48:18.967Z,49.62
2018-12-20T21:50:45.000Z,49.84
2018-12-20T21:53:12.662Z,49.54
2018-12-20T21:55:38.624Z,49.55
2018-12-20T21:58:04.599Z,49.06
2018-12-20T22:00:30.536Z,49.51
2018-12-20T22:02:56.487Z,49.78
2018-12-20T22:05:22.427Z,49.07
2018-12-20T22:07:48.495Z,49.25
2018-12-20T22:10:14.519Z,49.45
2018-12-20T22:12:40.470Z,49.40
2018-12-20T22:15:06.443Z,49.91
2018-12-20T22:17:32.408Z,49.07
2018-12-20T22:19:58.910Z,49.55
2018-12-20T22:22:24.981Z,49.80
2018-12-20T22:24:50.933Z,49.10
2018-12-20T22:27:16.944Z,49.41
2018-12-20T22:32:15.189Z,49.73
2018-12-20T22:34:41.121Z,49.38
2018-12-20T22:37:07.075Z,49.18
2018-12-20T22:39:33.029Z,49.19
2018-12-20T22:41:58.996Z,48.57
2018-12-20T22:44:24.957Z,48.14
2018-12-20T22:46:50.923Z,48.54
2018-12-20T22:49:16.909Z,48.82
2018-12-20T22:51:42.858Z,48.99
2018-12-20T22:54:08.835Z,49.18
2018-12-20T22:56:34.795Z,48.83
2018-12-20T22:59:01.782Z,47.98
2018-12-20T23:01:27.746Z,48.21
2018-12-20T23:03:53.717Z,48.55
2018-12-20T23:06:19.664Z,48.93
2018-12-20T23:08:45.652Z,48.48
2018-12-20T23:11:11.588Z,48.00
2018-12-20T23:13:37.555Z,49.00
2018-12-20T23:16:03.504Z,48.91
2018-12-20T23:18:31.491Z,48.58
2018-12-20T23:21:04.654Z,48.55
2018-12-20T23:23:25.405Z,49.04
2018-12-20T23:25:51.361Z,48.68
2018-12-20T23:28:17.349Z,48.80
2018-12-20T23:30:43.380Z,48.46
2018-12-20T23:33:09.360Z,48.98
2018-12-20T23:35:35.306Z,49.37
2018-12-20T23:38:01.268Z,49.00
2018-12-20T23:40:27.204Z,48.64
2018-12-20T23:42:53.181Z,49.19
2018-12-20T23:45:19.116Z,49.32
2018-12-20T23:47:45.072Z,48.49
2018-12-20T23:50:11.022Z,48.63
2018-12-20T23:52:36.983Z,49.27
2018-12-20T23:55:02.936Z,49.28
2018-12-20T23:57:28.886Z,49.07
2018-12-20T23:59:54.865Z,49.51
